Repubblicadelbrasile — IBZB — position and weather

sailwx.info

Track history (hours):
 
Tides and Currents Weather Stations Pressure Air Temp Water Temp Dewpoint Dewpoint Depression Visibility Wind Speed Wind Dir Waves Ship Positions

Repubblicadelbrasile

Last reported at 2017-Dec-09 18:46 UTC. Time now 2017-Dec-11 17:15 UTC.
Position N 10°35' W 016°51'.

Length 210 m; draft 7.6 m.

Type: Ship (hazmat cat C). MMSI: 247310000.

Date/timePositionNaut miles runAvg speedWind from/ knotsBaromVisibWave heightAir tempDewpointWater temp
2017-Dec-09 18:46N 10°35' W 016°51'917.6
2017-Dec-09 18:17N 10°27' W 016°47'1417.5
2017-Dec-09 17:29N 10°15' W 016°40'817.3
2017-Dec-09 17:00N 10°08' W 016°35'917.2
2017-Dec-09 16:29N 10°00' W 016°30'1917.4
2017-Dec-09 15:23N 09°45' W 016°18'5617.9
2017-Dec-09 12:16N 09°07' W 015°38'518.1
2017-Dec-09 12:00N 09°04' W 015°34'917.9
2017-Dec-09 11:29N 08°57' W 015°27'6917.8
2017-Dec-09 07:37N 08°10' W 014°36'  
2017-Dec-04 08:55N 05°24' E 000°23'820.5
2017-Dec-04 08:31N 05°21' E 000°16'1020.6
2017-Dec-04 08:01N 05°18' E 000°06'1020.6
2017-Dec-04 07:31N 05°14' W 000°04'1020.6
2017-Dec-04 07:00N 05°10' W 000°13'  
Track history (hours):
 
Tides and Currents Weather Stations Pressure Air Temp Water Temp Dewpoint Dewpoint Depression Visibility Wind Speed Wind Dir Waves Ship Positions

Repubblicadelbrasile

Last reported at 2017-Dec-09 18:46 UTC. Time now 2017-Dec-11 17:15 UTC.
Position N 10°35' W 016°51'.

Length 210 m; draft 7.6 m.

Type: Ship (hazmat cat C). MMSI: 247310000.

Date/timePositionNaut miles runAvg speedWind from/ knotsBaromVisibWave heightAir tempDewpointWater temp
2017-Dec-09 18:46N 10°35' W 016°51'917.6
2017-Dec-09 18:17N 10°27' W 016°47'1417.5
2017-Dec-09 17:29N 10°15' W 016°40'817.3
2017-Dec-09 17:00N 10°08' W 016°35'917.2
2017-Dec-09 16:29N 10°00' W 016°30'1917.4
2017-Dec-09 15:23N 09°45' W 016°18'5617.9
2017-Dec-09 12:16N 09°07' W 015°38'518.1
2017-Dec-09 12:00N 09°04' W 015°34'917.9
2017-Dec-09 11:29N 08°57' W 015°27'6917.8
2017-Dec-09 07:37N 08°10' W 014°36'  
2017-Dec-04 08:55N 05°24' E 000°23'820.5
2017-Dec-04 08:31N 05°21' E 000°16'1020.6
2017-Dec-04 08:01N 05°18' E 000°06'1020.6
2017-Dec-04 07:31N 05°14' W 000°04'1020.6
2017-Dec-04 07:00N 05°10' W 000°13'  

Dump ship's entire track history